sensor_id;sensor_type;location;lat;lon;timestamp;temperature;humidity
8780;DHT22;62328;51.19929245;4.42130175;2024-02-15T00:01:10;12.90;99.90
8780;DHT22;62328;51.19929245;4.42130175;2024-02-15T00:03:42;12.90;99.90
8780;DHT22;62328;51.19929245;4.42130175;2024-02-15T00:06:10;12.90;99.90
8780;DHT22;62328;51.19929245;4.42130175;2024-02-15T00:08:39;12.90;99.90
8780;DHT22;62328;51.19929245;4.42130175;2024-02-15T00:11:07;12.80;99.90
8780;DHT22;62328;51.19929245;4.42130175;2024-02-15T00:13:36;12.80;99.90
8780;DHT22;62328;51.19929245;4.42130175;2024-02-15T00:16:04;12.80;99.90
8780;DHT22;62328;51.19929245;4.42130175;2024-02-15T00:18:32;12.80;99.90
8780;DHT22;62328;51.19929245;4.42130175;2024-02-15T00:21:01;12.80;99.90
8780;DHT22;62328;51.19929245;4.42130175;2024-02-15T00:23:29;12.80;99.90
8780;DHT22;62328;51.19929245;4.42130175;2024-02-15T00:25:58;12.90;99.90
8780;DHT22;62328;51.19929245;4.42130175;2024-02-15T00:28:25;12.90;99.90
8780;DHT22;62328;51.19929245;4.42130175;2024-02-15T00:30:53;12.80;99.90
8780;DHT22;62328;51.19929245;4.42130175;2024-02-15T00:33:21;12.80;99.90
8780;DHT22;62328;51.19929245;4.42130175;2024-02-15T00:35:49;12.80;99.90
8780;DHT22;62328;51.19929245;4.42130175;2024-02-15T00:38:19;12.80;99.90
8780;DHT22;62328;51.19929245;4.42130175;2024-02-15T00:40:47;12.80;99.90
8780;DHT22;62328;51.19929245;4.42130175;2024-02-15T00:43:16;12.90;99.90
8780;DHT22;62328;51.19929245;4.42130175;2024-02-15T00:45:45;12.90;99.90
8780;DHT22;62328;51.19929245;4.42130175;2024-02-15T00:48:14;13.00;99.90
8780;DHT22;62328;51.19929245;4.42130175;2024-02-15T00:50:42;12.90;99.90
8780;DHT22;62328;51.19929245;4.42130175;2024-02-15T00:53:10;13.00;99.90
8780;DHT22;62328;51.19929245;4.42130175;2024-02-15T00:55:39;13.00;99.90
8780;DHT22;62328;51.19929245;4.42130175;2024-02-15T00:58:06;12.90;99.90
8780;DHT22;62328;51.19929245;4.42130175;2024-02-15T01:00:34;12.90;99.90
8780;DHT22;62328;51.19929245;4.42130175;2024-02-15T01:03:02;13.00;99.90
8780;DHT22;62328;51.19929245;4.42130175;2024-02-15T01:05:30;13.00;99.90
8780;DHT22;62328;51.19929245;4.42130175;2024-02-15T01:07:57;13.00;99.90
8780;DHT22;62328;51.19929245;4.42130175;2024-02-15T01:10:25;13.00;99.90
8780;DHT22;62328;51.19929245;4.42130175;2024-02-15T01:12:54;13.00;99.90
8780;DHT22;62328;51.19929245;4.42130175;2024-02-15T01:15:22;13.00;99.90
8780;DHT22;62328;51.19929245;4.42130175;2024-02-15T01:17:50;13.00;99.90
8780;DHT22;62328;51.19929245;4.42130175;2024-02-15T01:20:18;13.00;99.90
8780;DHT22;62328;51.19929245;4.42130175;2024-02-15T01:22:46;13.10;99.90
8780;DHT22;62328;51.19929245;4.42130175;2024-02-15T01:25:15;13.10;99.90
8780;DHT22;62328;51.19929245;4.42130175;2024-02-15T01:27:43;13.00;99.90
8780;DHT22;62328;51.19929245;4.42130175;2024-02-15T01:30:13;13.10;99.90
8780;DHT22;62328;51.19929245;4.42130175;2024-02-15T01:32:40;13.10;99.90
8780;DHT22;62328;51.19929245;4.42130175;2024-02-15T01:35:08;13.10;99.90
8780;DHT22;62328;51.19929245;4.42130175;2024-02-15T01:37:37;13.10;99.90
8780;DHT22;62328;51.19929245;4.42130175;2024-02-15T01:40:05;13.10;99.90
8780;DHT22;62328;51.19929245;4.42130175;2024-02-15T01:42:33;13.00;99.90
8780;DHT22;62328;51.19929245;4.42130175;2024-02-15T01:45:01;13.00;99.90
8780;DHT22;62328;51.19929245;4.42130175;2024-02-15T01:47:31;13.00;99.90
8780;DHT22;62328;51.19929245;4.42130175;2024-02-15T01:49:59;13.00;99.90
8780;DHT22;62328;51.19929245;4.42130175;2024-02-15T01:52:27;13.10;99.90
8780;DHT22;62328;51.19929245;4.42130175;2024-02-15T01:54:54;13.00;99.90
8780;DHT22;62328;51.19929245;4.42130175;2024-02-15T01:57:22;13.10;99.90
8780;DHT22;62328;51.19929245;4.42130175;2024-02-15T01:59:50;13.10;99.90
8780;DHT22;62328;51.19929245;4.42130175;2024-02-15T02:02:19;13.20;99.90
8780;DHT22;62328;51.19929245;4.42130175;2024-02-15T02:04:49;13.20;99.90
8780;DHT22;62328;51.19929245;4.42130175;2024-02-15T02:07:17;13.20;99.90
8780;DHT22;62328;51.19929245;4.42130175;2024-02-15T02:09:45;13.20;99.90
8780;DHT22;62328;51.19929245;4.42130175;2024-02-15T02:12:13;13.20;99.90
8780;DHT22;62328;51.19929245;4.42130175;2024-02-15T02:14:41;13.10;99.90
8780;DHT22;62328;51.19929245;4.42130175;2024-02-15T02:17:11;13.20;99.90
8780;DHT22;62328;51.19929245;4.42130175;2024-02-15T02:19:39;13.20;99.90
8780;DHT22;62328;51.19929245;4.42130175;2024-02-15T02:22:08;13.20;99.90
8780;DHT22;62328;51.19929245;4.42130175;2024-02-15T02:24:40;13.20;99.90
8780;DHT22;62328;51.19929245;4.42130175;2024-02-15T02:27:13;13.10;99.90
8780;DHT22;62328;51.19929245;4.42130175;2024-02-15T02:29:43;13.20;99.90
8780;DHT22;62328;51.19929245;4.42130175;2024-02-15T02:32:13;13.10;99.90
8780;DHT22;62328;51.19929245;4.42130175;2024-02-15T02:34:42;13.10;99.90
8780;DHT22;62328;51.19929245;4.42130175;2024-02-15T02:37:11;13.10;99.90
8780;DHT22;62328;51.19929245;4.42130175;2024-02-15T02:39:42;13.10;99.90
8780;DHT22;62328;51.19929245;4.42130175;2024-02-15T02:42:15;13.10;99.90
8780;DHT22;62328;51.19929245;4.42130175;2024-02-15T02:44:44;13.10;99.90
8780;DHT22;62328;51.19929245;4.42130175;2024-02-15T02:47:13;13.10;99.90
8780;DHT22;62328;51.19929245;4.42130175;2024-02-15T02:49:42;13.00;99.90
8780;DHT22;62328;51.19929245;4.42130175;2024-02-15T02:52:10;12.90;99.90
8780;DHT22;62328;51.19929245;4.42130175;2024-02-15T02:54:39;13.00;99.90
8780;DHT22;62328;51.19929245;4.42130175;2024-02-15T02:57:07;13.00;99.90
8780;DHT22;62328;51.19929245;4.42130175;2024-02-15T02:59:37;12.90;99.90
8780;DHT22;62328;51.19929245;4.42130175;2024-02-15T03:02:05;12.90;99.90
8780;DHT22;62328;51.19929245;4.42130175;2024-02-15T03:04:34;12.90;99.90
8780;DHT22;62328;51.19929245;4.42130175;2024-02-15T03:07:04;12.80;99.90
8780;DHT22;62328;51.19929245;4.42130175;2024-02-15T03:09:34;12.70;99.90
8780;DHT22;62328;51.19929245;4.42130175;2024-02-15T03:12:04;12.70;99.90
8780;DHT22;62328;51.19929245;4.42130175;2024-02-15T03:14:32;12.70;99.90
8780;DHT22;62328;51.19929245;4.42130175;2024-02-15T03:17:03;12.70;99.90
8780;DHT22;62328;51.19929245;4.42130175;2024-02-15T03:19:32;12.70;99.90
8780;DHT22;62328;51.19929245;4.42130175;2024-02-15T03:22:01;12.70;99.90
8780;DHT22;62328;51.19929245;4.42130175;2024-02-15T03:24:29;12.70;99.90
8780;DHT22;62328;51.19929245;4.42130175;2024-02-15T03:26:57;12.70;99.90
8780;DHT22;62328;51.19929245;4.42130175;2024-02-15T03:29:26;12.70;99.90
8780;DHT22;62328;51.19929245;4.42130175;2024-02-15T03:31:55;12.70;99.90
8780;DHT22;62328;51.19929245;4.42130175;2024-02-15T03:34:25;12.70;99.90
8780;DHT22;62328;51.19929245;4.42130175;2024-02-15T03:36:54;12.70;99.90
8780;DHT22;62328;51.19929245;4.42130175;2024-02-15T03:39:23;12.60;99.90
8780;DHT22;62328;51.19929245;4.42130175;2024-02-15T03:41:51;12.70;99.90
8780;DHT22;62328;51.19929245;4.42130175;2024-02-15T03:44:19;12.70;99.90
8780;DHT22;62328;51.19929245;4.42130175;2024-02-15T03:46:47;12.70;99.90
8780;DHT22;62328;51.19929245;4.42130175;2024-02-15T03:49:17;12.70;99.90
8780;DHT22;62328;51.19929245;4.42130175;2024-02-15T03:51:50;12.60;99.90
8780;DHT22;62328;51.19929245;4.42130175;2024-02-15T03:54:21;12.70;99.90
8780;DHT22;62328;51.19929245;4.42130175;2024-02-15T03:56:51;12.60;99.90
8780;DHT22;62328;51.19929245;4.42130175;2024-02-15T03:59:19;12.70;99.90
8780;DHT22;62328;51.19929245;4.42130175;2024-02-15T04:01:50;12.70;99.90
8780;DHT22;62328;51.19929245;4.42130175;2024-02-15T04:04:18;12.60;99.90
8780;DHT22;62328;51.19929245;4.42130175;2024-02-15T04:06:47;12.60;99.90
8780;DHT22;62328;51.19929245;4.42130175;2024-02-15T04:09:16;12.60;99.90
8780;DHT22;62328;51.19929245;4.42130175;2024-02-15T04:11:44;12.60;99.90
8780;DHT22;62328;51.19929245;4.42130175;2024-02-15T04:14:16;12.70;99.90
8780;DHT22;62328;51.19929245;4.42130175;2024-02-15T04:16:46;12.70;99.90
8780;DHT22;62328;51.19929245;4.42130175;2024-02-15T04:19:15;12.70;99.90
8780;DHT22;62328;51.19929245;4.42130175;2024-02-15T04:21:45;12.70;99.90
8780;DHT22;62328;51.19929245;4.42130175;2024-02-15T04:24:13;12.70;99.90
8780;DHT22;62328;51.19929245;4.42130175;2024-02-15T04:26:42;12.70;99.90
8780;DHT22;62328;51.19929245;4.42130175;2024-02-15T04:29:11;12.70;99.90
8780;DHT22;62328;51.19929245;4.42130175;2024-02-15T04:31:39;12.60;99.90
8780;DHT22;62328;51.19929245;4.42130175;2024-02-15T04:34:06;12.70;99.90
8780;DHT22;62328;51.19929245;4.42130175;2024-02-15T04:36:35;12.80;99.90
8780;DHT22;62328;51.19929245;4.42130175;2024-02-15T04:39:03;12.70;99.90
8780;DHT22;62328;51.19929245;4.42130175;2024-02-15T04:41:32;12.70;99.90
8780;DHT22;62328;51.19929245;4.42130175;2024-02-15T04:44:02;12.70;99.90
8780;DHT22;62328;51.19929245;4.42130175;2024-02-15T04:46:30;12.70;99.90
8780;DHT22;62328;51.19929245;4.42130175;2024-02-15T04:48:57;12.70;99.90
8780;DHT22;62328;51.19929245;4.42130175;2024-02-15T04:51:27;12.70;99.90
8780;DHT22;62328;51.19929245;4.42130175;2024-02-15T04:53:55;12.70;99.90
8780;DHT22;62328;51.19929245;4.42130175;2024-02-15T04:56:23;12.70;99.90
8780;DHT22;62328;51.19929245;4.42130175;2024-02-15T04:58:51;12.80;99.90
8780;DHT22;62328;51.19929245;4.42130175;2024-02-15T05:01:21;12.80;99.90
8780;DHT22;62328;51.19929245;4.42130175;2024-02-15T05:03:48;12.80;99.90
8780;DHT22;62328;51.19929245;4.42130175;2024-02-15T05:06:16;12.70;99.90
8780;DHT22;62328;51.19929245;4.42130175;2024-02-15T05:08:45;12.80;99.90
8780;DHT22;62328;51.19929245;4.42130175;2024-02-15T05:11:14;12.70;99.90
8780;DHT22;62328;51.19929245;4.42130175;2024-02-15T05:13:44;12.70;99.90
8780;DHT22;62328;51.19929245;4.42130175;2024-02-15T05:16:13;12.60;99.90
8780;DHT22;62328;51.19929245;4.42130175;2024-02-15T05:18:44;12.70;99.90
8780;DHT22;62328;51.19929245;4.42130175;2024-02-15T05:21:13;12.70;99.90
8780;DHT22;62328;51.19929245;4.42130175;2024-02-15T05:23:41;12.60;99.90
8780;DHT22;62328;51.19929245;4.42130175;2024-02-15T05:26:10;12.70;99.90
8780;DHT22;62328;51.19929245;4.42130175;2024-02-15T05:28:42;12.60;99.90
8780;DHT22;62328;51.19929245;4.42130175;2024-02-15T05:31:12;12.60;99.90
8780;DHT22;62328;51.19929245;4.42130175;2024-02-15T05:33:44;12.60;99.90
8780;DHT22;62328;51.19929245;4.42130175;2024-02-15T05:36:13;12.60;99.90
8780;DHT22;62328;51.19929245;4.42130175;2024-02-15T05:38:41;12.60;99.90
8780;DHT22;62328;51.19929245;4.42130175;2024-02-15T05:41:11;12.60;99.90
8780;DHT22;62328;51.19929245;4.42130175;2024-02-15T05:43:49;12.60;99.90
8780;DHT22;62328;51.19929245;4.42130175;2024-02-15T05:46:21;12.60;99.90
8780;DHT22;62328;51.19929245;4.42130175;2024-02-15T05:48:54;12.60;99.90
8780;DHT22;62328;51.19929245;4.42130175;2024-02-15T05:51:25;12.60;99.90
8780;DHT22;62328;51.19929245;4.42130175;2024-02-15T05:53:59;12.50;99.90
8780;DHT22;62328;51.19929245;4.42130175;2024-02-15T05:56:34;12.50;99.90
8780;DHT22;62328;51.19929245;4.42130175;2024-02-15T05:59:07;12.50;99.90
8780;DHT22;62328;51.19929245;4.42130175;2024-02-15T06:01:41;12.60;99.90
8780;DHT22;62328;51.19929245;4.42130175;2024-02-15T06:04:16;12.60;99.90
8780;DHT22;62328;51.19929245;4.42130175;2024-02-15T06:06:46;12.60;99.90
8780;DHT22;62328;51.19929245;4.42130175;2024-02-15T06:09:16;12.60;99.90
8780;DHT22;62328;51.19929245;4.42130175;2024-02-15T06:11:47;12.70;99.90
8780;DHT22;62328;51.19929245;4.42130175;2024-02-15T06:14:18;12.70;99.90
8780;DHT22;62328;51.19929245;4.42130175;2024-02-15T06:16:46;12.70;99.90
8780;DHT22;62328;51.19929245;4.42130175;2024-02-15T06:19:16;12.70;99.90
8780;DHT22;62328;51.19929245;4.42130175;2024-02-15T06:21:44;12.60;99.90
8780;DHT22;62328;51.19929245;4.42130175;2024-02-15T06:24:12;12.60;99.90
8780;DHT22;62328;51.19929245;4.42130175;2024-02-15T06:26:40;12.60;99.90
8780;DHT22;62328;51.19929245;4.42130175;2024-02-15T06:29:08;12.60;99.90
8780;DHT22;62328;51.19929245;4.42130175;2024-02-15T06:31:53;12.50;99.90
8780;DHT22;62328;51.19929245;4.42130175;2024-02-15T06:34:39;12.50;99.90
8780;DHT22;62328;51.19929245;4.42130175;2024-02-15T06:37:35;12.50;99.90
8780;DHT22;62328;51.19929245;4.42130175;2024-02-15T06:40:20;12.50;99.90
8780;DHT22;62328;51.19929245;4.42130175;2024-02-15T06:42:48;12.50;99.90
8780;DHT22;62328;51.19929245;4.42130175;2024-02-15T06:45:16;12.50;99.90
8780;DHT22;62328;51.19929245;4.42130175;2024-02-15T06:47:43;12.50;99.90
8780;DHT22;62328;51.19929245;4.42130175;2024-02-15T06:50:13;12.50;99.90
8780;DHT22;62328;51.19929245;4.42130175;2024-02-15T06:52:40;12.50;99.90
8780;DHT22;62328;51.19929245;4.42130175;2024-02-15T06:55:09;12.70;99.90
8780;DHT22;62328;51.19929245;4.42130175;2024-02-15T06:57:38;12.70;99.90
8780;DHT22;62328;51.19929245;4.42130175;2024-02-15T07:00:06;12.70;99.90
8780;DHT22;62328;51.19929245;4.42130175;2024-02-15T07:02:35;12.70;99.90
8780;DHT22;62328;51.19929245;4.42130175;2024-02-15T07:05:02;12.70;99.90
8780;DHT22;62328;51.19929245;4.42130175;2024-02-15T07:07:32;12.80;99.90
8780;DHT22;62328;51.19929245;4.42130175;2024-02-15T07:10:00;12.70;99.90
8780;DHT22;62328;51.19929245;4.42130175;2024-02-15T07:12:29;12.70;99.90
8780;DHT22;62328;51.19929245;4.42130175;2024-02-15T07:14:57;12.70;99.90
8780;DHT22;62328;51.19929245;4.42130175;2024-02-15T07:17:27;12.70;99.90
8780;DHT22;62328;51.19929245;4.42130175;2024-02-15T07:19:55;12.70;99.90
8780;DHT22;62328;51.19929245;4.42130175;2024-02-15T07:22:22;12.80;99.90
8780;DHT22;62328;51.19929245;4.42130175;2024-02-15T07:24:51;12.80;99.90
8780;DHT22;62328;51.19929245;4.42130175;2024-02-15T07:27:19;12.90;99.90
8780;DHT22;62328;51.19929245;4.42130175;2024-02-15T07:29:49;12.80;99.90
8780;DHT22;62328;51.19929245;4.42130175;2024-02-15T07:32:17;12.90;99.90
8780;DHT22;62328;51.19929245;4.42130175;2024-02-15T07:34:44;12.90;99.90
8780;DHT22;62328;51.19929245;4.42130175;2024-02-15T07:37:13;12.90;99.90
8780;DHT22;62328;51.19929245;4.42130175;2024-02-15T07:39:42;12.90;99.90
8780;DHT22;62328;51.19929245;4.42130175;2024-02-15T07:42:13;13.00;99.90
8780;DHT22;62328;51.19929245;4.42130175;2024-02-15T07:44:43;12.90;99.90
8780;DHT22;62328;51.19929245;4.42130175;2024-02-15T07:47:13;12.90;99.90
8780;DHT22;62328;51.19929245;4.42130175;2024-02-15T07:49:46;12.90;99.90
8780;DHT22;62328;51.19929245;4.42130175;2024-02-15T07:52:19;12.90;99.90
8780;DHT22;62328;51.19929245;4.42130175;2024-02-15T07:54:50;12.90;99.90
8780;DHT22;62328;51.19929245;4.42130175;2024-02-15T07:57:22;12.90;99.90
8780;DHT22;62328;51.19929245;4.42130175;2024-02-15T07:59:52;13.00;99.90
8780;DHT22;62328;51.19929245;4.42130175;2024-02-15T08:02:20;13.00;99.90
8780;DHT22;62328;51.19929245;4.42130175;2024-02-15T08:04:49;13.00;99.90
8780;DHT22;62328;51.19929245;4.42130175;2024-02-15T08:07:17;13.00;99.90
8780;DHT22;62328;51.19929245;4.42130175;2024-02-15T08:09:46;13.10;99.90
8780;DHT22;62328;51.19929245;4.42130175;2024-02-15T08:12:16;13.10;99.90
8780;DHT22;62328;51.19929245;4.42130175;2024-02-15T08:14:48;13.10;99.90
8780;DHT22;62328;51.19929245;4.42130175;2024-02-15T08:17:17;13.10;99.90
8780;DHT22;62328;51.19929245;4.42130175;2024-02-15T08:19:45;13.10;99.90
8780;DHT22;62328;51.19929245;4.42130175;2024-02-15T08:22:13;13.10;99.90
8780;DHT22;62328;51.19929245;4.42130175;2024-02-15T08:24:41;13.10;99.90
8780;DHT22;62328;51.19929245;4.42130175;2024-02-15T08:27:11;13.10;99.90
8780;DHT22;62328;51.19929245;4.42130175;2024-02-15T08:29:39;13.10;99.90
8780;DHT22;62328;51.19929245;4.42130175;2024-02-15T08:32:09;13.00;99.90
8780;DHT22;62328;51.19929245;4.42130175;2024-02-15T08:34:37;13.00;99.90
8780;DHT22;62328;51.19929245;4.42130175;2024-02-15T08:37:05;12.90;99.90
8780;DHT22;62328;51.19929245;4.42130175;2024-02-15T08:39:33;12.90;99.90
8780;DHT22;62328;51.19929245;4.42130175;2024-02-15T08:42:00;12.80;99.90
8780;DHT22;62328;51.19929245;4.42130175;2024-02-15T08:44:30;12.80;99.90
8780;DHT22;62328;51.19929245;4.42130175;2024-02-15T08:46:59;12.80;99.90
8780;DHT22;62328;51.19929245;4.42130175;2024-02-15T08:49:28;12.80;99.90
8780;DHT22;62328;51.19929245;4.42130175;2024-02-15T08:51:56;12.80;99.90
8780;DHT22;62328;51.19929245;4.42130175;2024-02-15T08:54:24;12.80;99.90
8780;DHT22;62328;51.19929245;4.42130175;2024-02-15T08:56:52;12.80;99.90
8780;DHT22;62328;51.19929245;4.42130175;2024-02-15T08:59:21;12.70;99.90
8780;DHT22;62328;51.19929245;4.42130175;2024-02-15T09:01:50;12.70;99.90
8780;DHT22;62328;51.19929245;4.42130175;2024-02-15T09:04:20;12.70;99.90
8780;DHT22;62328;51.19929245;4.42130175;2024-02-15T09:06:50;12.60;99.90
8780;DHT22;62328;51.19929245;4.42130175;2024-02-15T09:09:18;12.70;99.90
8780;DHT22;62328;51.19929245;4.42130175;2024-02-15T09:11:46;12.70;99.90
8780;DHT22;62328;51.19929245;4.42130175;2024-02-15T09:14:14;12.70;99.90
8780;DHT22;62328;51.19929245;4.42130175;2024-02-15T09:16:41;12.70;99.90
8780;DHT22;62328;51.19929245;4.42130175;2024-02-15T09:19:09;12.70;99.90
8780;DHT22;62328;51.19929245;4.42130175;2024-02-15T09:21:37;12.80;99.90
8780;DHT22;62328;51.19929245;4.42130175;2024-02-15T09:24:06;12.80;99.90
8780;DHT22;62328;51.19929245;4.42130175;2024-02-15T09:26:34;12.80;99.90
8780;DHT22;62328;51.19929245;4.42130175;2024-02-15T09:29:02;12.80;99.90
8780;DHT22;62328;51.19929245;4.42130175;2024-02-15T09:31:29;12.80;99.90
8780;DHT22;62328;51.19929245;4.42130175;2024-02-15T09:33:57;12.90;99.90
8780;DHT22;62328;51.19929245;4.42130175;2024-02-15T09:36:25;12.90;99.90
8780;DHT22;62328;51.19929245;4.42130175;2024-02-15T09:38:54;12.90;99.90
8780;DHT22;62328;51.19929245;4.42130175;2024-02-15T09:41:23;12.90;99.90
8780;DHT22;62328;51.19929245;4.42130175;2024-02-15T09:43:51;13.00;99.90
8780;DHT22;62328;51.19929245;4.42130175;2024-02-15T09:46:19;13.00;99.90
8780;DHT22;62328;51.19929245;4.42130175;2024-02-15T09:48:49;13.00;99.90
8780;DHT22;62328;51.19929245;4.42130175;2024-02-15T09:51:17;13.00;99.90
8780;DHT22;62328;51.19929245;4.42130175;2024-02-15T09:53:45;13.00;99.90
8780;DHT22;62328;51.19929245;4.42130175;2024-02-15T09:56:14;13.10;99.90
8780;DHT22;62328;51.19929245;4.42130175;2024-02-15T09:58:44;13.10;99.90
8780;DHT22;62328;51.19929245;4.42130175;2024-02-15T10:01:12;13.10;99.90
8780;DHT22;62328;51.19929245;4.42130175;2024-02-15T10:03:39;13.10;99.90
8780;DHT22;62328;51.19929245;4.42130175;2024-02-15T10:06:08;13.10;99.90
8780;DHT22;62328;51.19929245;4.42130175;2024-02-15T10:08:37;13.20;99.90
8780;DHT22;62328;51.19929245;4.42130175;2024-02-15T10:11:05;13.20;99.90
8780;DHT22;62328;51.19929245;4.42130175;2024-02-15T10:13:34;13.20;99.90
8780;DHT22;62328;51.19929245;4.42130175;2024-02-15T10:18:46;13.20;99.90
8780;DHT22;62328;51.19929245;4.42130175;2024-02-15T10:24:08;13.40;99.90
8780;DHT22;62328;51.19929245;4.42130175;2024-02-15T10:26:36;13.50;99.90
8780;DHT22;62328;51.19929245;4.42130175;2024-02-15T10:29:07;13.50;99.90
8780;DHT22;62328;51.19929245;4.42130175;2024-02-15T10:31:36;13.50;99.90
8780;DHT22;62328;51.19929245;4.42130175;2024-02-15T10:34:06;13.50;99.90
8780;DHT22;62328;51.19929245;4.42130175;2024-02-15T10:36:35;13.60;99.90
8780;DHT22;62328;51.19929245;4.42130175;2024-02-15T10:39:10;13.60;99.90
8780;DHT22;62328;51.19929245;4.42130175;2024-02-15T10:41:48;13.70;99.90
8780;DHT22;62328;51.19929245;4.42130175;2024-02-15T10:44:19;13.70;99.90
8780;DHT22;62328;51.19929245;4.42130175;2024-02-15T10:46:51;13.80;99.90
8780;DHT22;62328;51.19929245;4.42130175;2024-02-15T10:49:26;13.90;99.90
8780;DHT22;62328;51.19929245;4.42130175;2024-02-15T10:51:58;13.90;99.90
8780;DHT22;62328;51.19929245;4.42130175;2024-02-15T10:57:14;14.10;99.90
8780;DHT22;62328;51.19929245;4.42130175;2024-02-15T10:59:53;14.20;99.90
8780;DHT22;62328;51.19929245;4.42130175;2024-02-15T11:02:29;14.30;99.90
8780;DHT22;62328;51.19929245;4.42130175;2024-02-15T11:05:01;14.40;99.90
8780;DHT22;62328;51.19929245;4.42130175;2024-02-15T11:07:29;14.40;99.90
8780;DHT22;62328;51.19929245;4.42130175;2024-02-15T11:09:58;14.40;99.90
8780;DHT22;62328;51.19929245;4.42130175;2024-02-15T11:12:26;14.40;99.90
8780;DHT22;62328;51.19929245;4.42130175;2024-02-15T11:14:54;14.50;99.90
8780;DHT22;62328;51.19929245;4.42130175;2024-02-15T11:20:11;14.60;99.90
8780;DHT22;62328;51.19929245;4.42130175;2024-02-15T11:22:58;14.70;99.90
8780;DHT22;62328;51.19929245;4.42130175;2024-02-15T11:25:31;14.70;99.90
8780;DHT22;62328;51.19929245;4.42130175;2024-02-15T11:28:05;14.70;99.90
8780;DHT22;62328;51.19929245;4.42130175;2024-02-15T11:30:53;14.80;99.90
8780;DHT22;62328;51.19929245;4.42130175;2024-02-15T11:33:27;14.80;99.90
8780;DHT22;62328;51.19929245;4.42130175;2024-02-15T11:36:03;14.90;99.90
8780;DHT22;62328;51.19929245;4.42130175;2024-02-15T11:38:31;14.90;99.90
8780;DHT22;62328;51.19929245;4.42130175;2024-02-15T11:41:00;15.00;99.90
8780;DHT22;62328;51.19929245;4.42130175;2024-02-15T11:46:15;15.20;99.90
8780;DHT22;62328;51.19929245;4.42130175;2024-02-15T11:48:44;15.20;99.90
8780;DHT22;62328;51.19929245;4.42130175;2024-02-15T11:51:25;15.20;99.90
8780;DHT22;62328;51.19929245;4.42130175;2024-02-15T11:54:00;15.30;99.90
8780;DHT22;62328;51.19929245;4.42130175;2024-02-15T11:56:31;15.30;99.90
8780;DHT22;62328;51.19929245;4.42130175;2024-02-15T11:59:02;15.30;99.90
8780;DHT22;62328;51.19929245;4.42130175;2024-02-15T12:01:32;15.40;99.90
8780;DHT22;62328;51.19929245;4.42130175;2024-02-15T12:04:17;15.50;99.90
8780;DHT22;62328;51.19929245;4.42130175;2024-02-15T12:07:04;15.60;99.90
8780;DHT22;62328;51.19929245;4.42130175;2024-02-15T12:09:48;15.60;99.90
8780;DHT22;62328;51.19929245;4.42130175;2024-02-15T12:12:33;15.70;99.90
8780;DHT22;62328;51.19929245;4.42130175;2024-02-15T12:15:17;15.70;99.90
8780;DHT22;62328;51.19929245;4.42130175;2024-02-15T12:18:14;15.70;99.90
8780;DHT22;62328;51.19929245;4.42130175;2024-02-15T12:20:59;15.80;99.90
8780;DHT22;62328;51.19929245;4.42130175;2024-02-15T12:23:29;15.80;99.90
8780;DHT22;62328;51.19929245;4.42130175;2024-02-15T12:25:59;15.80;99.90
8780;DHT22;62328;51.19929245;4.42130175;2024-02-15T12:28:27;15.80;99.90
8780;DHT22;62328;51.19929245;4.42130175;2024-02-15T12:30:55;15.90;99.90
8780;DHT22;62328;51.19929245;4.42130175;2024-02-15T12:33:23;15.90;99.90
8780;DHT22;62328;51.19929245;4.42130175;2024-02-15T12:36:03;15.90;99.90
8780;DHT22;62328;51.19929245;4.42130175;2024-02-15T12:38:35;16.00;99.90
8780;DHT22;62328;51.19929245;4.42130175;2024-02-15T12:41:04;16.10;99.90
8780;DHT22;62328;51.19929245;4.42130175;2024-02-15T12:43:46;16.10;99.90
8780;DHT22;62328;51.19929245;4.42130175;2024-02-15T12:46:17;16.20;99.90
8780;DHT22;62328;51.19929245;4.42130175;2024-02-15T12:48:46;16.30;99.90
8780;DHT22;62328;51.19929245;4.42130175;2024-02-15T12:51:15;16.30;99.90
8780;DHT22;62328;51.19929245;4.42130175;2024-02-15T12:53:45;16.30;99.90
8780;DHT22;62328;51.19929245;4.42130175;2024-02-15T12:56:20;16.40;99.90
8780;DHT22;62328;51.19929245;4.42130175;2024-02-15T12:58:49;16.40;99.90
8780;DHT22;62328;51.19929245;4.42130175;2024-02-15T13:01:19;16.40;99.90
8780;DHT22;62328;51.19929245;4.42130175;2024-02-15T13:03:48;16.40;99.90
8780;DHT22;62328;51.19929245;4.42130175;2024-02-15T13:06:17;16.40;99.90
8780;DHT22;62328;51.19929245;4.42130175;2024-02-15T13:08:52;16.40;99.90
8780;DHT22;62328;51.19929245;4.42130175;2024-02-15T13:11:20;16.40;99.90
8780;DHT22;62328;51.19929245;4.42130175;2024-02-15T13:13:51;16.40;99.90
8780;DHT22;62328;51.19929245;4.42130175;2024-02-15T13:16:21;16.40;99.90
8780;DHT22;62328;51.19929245;4.42130175;2024-02-15T13:18:51;16.40;99.90
8780;DHT22;62328;51.19929245;4.42130175;2024-02-15T13:21:20;16.30;99.90
8780;DHT22;62328;51.19929245;4.42130175;2024-02-15T13:23:52;16.30;99.90
8780;DHT22;62328;51.19929245;4.42130175;2024-02-15T13:26:21;16.30;99.90
8780;DHT22;62328;51.19929245;4.42130175;2024-02-15T13:28:52;16.30;99.90
8780;DHT22;62328;51.19929245;4.42130175;2024-02-15T13:31:20;16.20;99.90
8780;DHT22;62328;51.19929245;4.42130175;2024-02-15T13:33:49;16.20;99.90
8780;DHT22;62328;51.19929245;4.42130175;2024-02-15T13:36:17;16.20;99.90
8780;DHT22;62328;51.19929245;4.42130175;2024-02-15T13:38:45;16.20;99.90
8780;DHT22;62328;51.19929245;4.42130175;2024-02-15T13:41:19;16.20;99.90
8780;DHT22;62328;51.19929245;4.42130175;2024-02-15T13:43:47;16.20;99.90
8780;DHT22;62328;51.19929245;4.42130175;2024-02-15T13:46:14;16.20;99.90
8780;DHT22;62328;51.19929245;4.42130175;2024-02-15T13:48:45;16.30;99.90
8780;DHT22;62328;51.19929245;4.42130175;2024-02-15T13:51:14;16.30;99.90
8780;DHT22;62328;51.19929245;4.42130175;2024-02-15T13:53:43;16.40;99.90
8780;DHT22;62328;51.19929245;4.42130175;2024-02-15T13:56:14;16.40;99.90
8780;DHT22;62328;51.19929245;4.42130175;2024-02-15T13:58:44;16.50;99.90
8780;DHT22;62328;51.19929245;4.42130175;2024-02-15T14:01:12;16.60;99.90
8780;DHT22;62328;51.19929245;4.42130175;2024-02-15T14:03:40;16.60;99.90